Flight Track Log - Related Links

Times and Time Zones

All times are in EDT time to prevent confusion due to time zone crossing. See the A7-BAE flight status page for this flight to view local times or setup timezone preferences in your user account.

Time Position Orientation Groundspeed Altitude Reporting Facility
EDT Latitude Longitude Course Direction KTS MPH feet Rate Location/Type
Thu 03:49:32 PM 14.3197 99.0915 291° West  Level Estimated
Thu 03:50:32 PM 14.3665 98.9688 291° West  Level Estimated
Thu 03:51:32 PM 14.4132 98.8460 291° West  Level Estimated
Thu 03:52:32 PM 14.4598 98.7232 291° West  Level Estimated
Thu 03:53:32 PM 14.5063 98.6003 291° West  Level Estimated
Thu 03:54:32 PM 14.5528 98.4774 291° West  Level Estimated
Thu 03:55:32 PM 14.5992 98.3544 291° West  Level Estimated
Thu 03:56:32 PM 14.6456 98.2314 291° West  Level Estimated
Thu 03:57:32 PM 14.6919 98.1083 291° West  Level Estimated
Thu 03:58:32 PM 14.7381 97.9852 291° West  Level Estimated
Thu 03:59:32 PM 14.7843 97.8620 291° West  Level Estimated
Thu 04:00:32 PM 14.8304 97.7388 291° West  Level Estimated
Thu 04:01:32 PM 14.8764 97.6155 291° West  Level Estimated
Thu 04:02:32 PM 14.9224 97.4922 291° West  Level Estimated
Thu 04:03:32 PM 14.9683 97.3688 291° West  Level Estimated
Thu 04:04:32 PM 15.0141 97.2453 291° West  Level Estimated
Thu 04:05:32 PM 15.0599 97.1218 291° West  Level Estimated
Thu 04:06:32 PM 15.1056 96.9983 291° West  Level Estimated
Thu 04:07:32 PM 15.1512 96.8747 291° West  Level Estimated
Thu 04:08:32 PM 15.1968 96.7510 291° West  Level Estimated
Thu 04:09:32 PM 15.2423 96.6273 291° West  Level Estimated
Thu 04:10:32 PM 15.2877 96.5036 291° West  Level Estimated
Thu 04:11:32 PM 15.3331 96.3798 291° West  Level Estimated
Thu 04:12:32 PM 15.3784 96.2559 291° West  Level Estimated
Thu 04:13:32 PM 15.4236 96.1320 291° West  Level Estimated
Thu 04:14:32 PM 15.4687 96.0080 291° West  Level Estimated
Thu 04:15:32 PM 15.5138 95.8839 291° West  Level Estimated
Thu 04:16:32 PM 15.5589 95.7599 291° West  Level Estimated
Thu 04:17:32 PM 15.6038 95.6357 291° West  Level Estimated
Thu 04:18:32 PM 15.6487 95.5115 291° West  Level Estimated
Thu 04:19:32 PM 15.6935 95.3873 291° West  Level Estimated
Thu 04:20:32 PM 15.7382 95.2630 290° West  Level Estimated
Thu 04:21:32 PM 15.7829 95.1386 290° West  Level Estimated
Thu 04:22:32 PM 15.8275 95.0142 290° West  Level Estimated
Thu 04:23:32 PM 15.8720 94.8897 290° West  Level Estimated
Thu 04:24:32 PM 15.9165 94.7652 290° West  Level Estimated
Thu 04:25:32 PM 15.9609 94.6406 290° West  Level Estimated
Thu 04:26:32 PM 16.0052 94.5160 290° West  Level Estimated
Thu 04:27:32 PM 16.0494 94.3913 290° West  Level Estimated
Thu 04:28:32 PM 16.0936 94.2665 290° West  Level Estimated
Thu 04:29:32 PM 16.1377 94.1417 290° West  Level Estimated
Thu 04:30:32 PM 16.1817 94.0169 290° West  Level Estimated
Thu 04:31:32 PM 16.2257 93.8920 290° West  Level Estimated
Thu 04:32:32 PM 16.2695 93.7670 290° West  Level Estimated
Thu 04:33:32 PM 16.3134 93.6420 290° West  Level Estimated
Thu 04:34:32 PM 16.3571 93.5169 290° West  Level Estimated
Thu 04:35:32 PM 16.4007 93.3918 290° West  Level Estimated
Thu 04:36:32 PM 16.4443 93.2666 290° West  Level Estimated
Thu 04:37:32 PM 16.4878 93.1413 290° West  Level Estimated
Thu 04:38:32 PM 16.5313 93.0160 290° West  Level Estimated
Thu 04:39:32 PM 16.5746 92.8907 290° West  Level Estimated
Thu 04:40:32 PM 16.6179 92.7653 290° West  Level Estimated
Thu 04:41:32 PM 16.6611 92.6398 290° West  Level Estimated
Thu 04:42:32 PM 16.7042 92.5143 290° West  Level Estimated
Thu 04:43:32 PM 16.7473 92.3887 290° West  Level Estimated
Thu 04:44:32 PM 16.7903 92.2630 290° West  Level Estimated
Thu 04:45:32 PM 16.8332 92.1373 290° West  Level Estimated
Thu 04:46:32 PM 16.8760 92.0116 290° West  Level Estimated
Thu 04:47:32 PM 16.9188 91.8858 290° West  Level Estimated
Thu 04:48:32 PM 16.9614 91.7599 289° West  Level Estimated
Thu 04:49:32 PM 17.0040 91.6340 289° West  Level Estimated
Thu 04:50:32 PM 17.0466 91.5080 289° West  Level Estimated
Thu 04:51:32 PM 17.0890 91.3819 289° West  Level Estimated
Thu 04:52:32 PM 17.1314 91.2558 289° West  Level Estimated
Thu 04:53:32 PM 17.1737 91.1297 289° West  Level Estimated
Thu 04:54:32 PM 17.2159 91.0034 289° West  Level Estimated
Thu 04:55:32 PM 17.2580 90.8772 289° West  Level Estimated
Thu 04:56:32 PM 17.3001 90.7508 289° West  Level Estimated
Thu 04:57:32 PM 17.3420 90.6245 289° West  Level Estimated
Thu 04:58:32 PM 17.3839 90.4980 289° West  Level Estimated
Thu 04:59:32 PM 17.4257 90.3715 289° West  Level Estimated
Thu 05:00:32 PM 17.4674 90.2449 289° West  Level Estimated
Thu 05:01:32 PM 17.5091 90.1183 289° West  Level Estimated
Thu 05:02:32 PM 17.5507 89.9917 289° West  Level Estimated
Thu 05:03:32 PM 17.5922 89.8649 289° West  Level Estimated
Thu 05:04:32 PM 17.6336 89.7381 289° West  Level Estimated
Thu 05:05:32 PM 17.6749 89.6113 289° West  Level Estimated
Thu 05:06:32 PM 17.7162 89.4844 289° West  Level Estimated
Thu 05:07:32 PM 17.7573 89.3574 289° West  Level Estimated
Thu 05:08:32 PM 17.7984 89.2304 289° West  Level Estimated
Thu 05:09:32 PM 17.8394 89.1033 289° West  Level Estimated
Thu 05:10:32 PM 17.8803 88.9761 289° West  Level Estimated
Thu 05:11:32 PM 17.9212 88.8489 289° West  Level Estimated
Thu 05:12:32 PM 17.9619 88.7217 289° West  Level Estimated
Thu 05:13:32 PM 18.0026 88.5944 289° West  Level Estimated
Thu 05:14:32 PM 18.0432 88.4670 289° West  Level Estimated
Thu 05:15:32 PM 18.0837 88.3395 288° West  Level Estimated
Thu 05:16:32 PM 18.1241 88.2120 288° West  Level Estimated
Thu 05:17:32 PM 18.1645 88.0845 288° West  Level Estimated
Thu 05:18:32 PM 18.2047 87.9569 288° West  Level Estimated
Thu 05:19:32 PM 18.2449 87.8292 288° West  Level Estimated
Thu 05:20:32 PM 18.2850 87.7015 288° West  Level Estimated
Thu 05:21:32 PM 18.3250 87.5737 288° West  Level Estimated
Thu 05:22:32 PM 18.3649 87.4458 288° West  Level Estimated
Thu 05:23:32 PM 18.4047 87.3179 288° West  Level Estimated
Thu 05:24:32 PM 18.4445 87.1899 288° West  Level Estimated
Thu 05:25:32 PM 18.4841 87.0619 288° West  Level Estimated
Thu 05:26:32 PM 18.5237 86.9338 288° West  Level Estimated
Thu 05:27:32 PM 18.5632 86.8057 288° West  Level Estimated
Thu 05:28:32 PM 18.6026 86.6775 288° West  Level Estimated
Thu 05:29:32 PM 18.6419 86.5492 288° West  Level Estimated
Thu 05:30:32 PM 18.6811 86.4209 288° West  Level Estimated
Thu 05:31:32 PM 18.7203 86.2925 288° West  Level Estimated
Thu 05:32:32 PM 18.7593 86.1641 288° West  Level Estimated
Thu 05:33:32 PM 18.7983 86.0356 288° West  Level Estimated
Thu 05:34:32 PM 18.8372 85.9070 288° West  Level Estimated
Thu 05:35:32 PM 18.8759 85.7784 288° West  Level Estimated
Thu 05:36:32 PM 18.9146 85.6497 288° West  Level Estimated
Thu 05:37:32 PM 18.9533 85.5210 288° West  Level Estimated
Thu 05:38:32 PM 18.9918 85.3922 288° West  Level Estimated
Thu 05:39:32 PM 19.0302 85.2633 287° West  Level Estimated
Thu 05:40:32 PM 19.0686 85.1344 287° West  Level Estimated
Thu 05:41:32 PM 19.1068 85.0054 287° West  Level Estimated
Thu 05:42:32 PM 19.1450 84.8764 287° West  Level Estimated
Thu 05:43:32 PM 19.1830 84.7473 287° West  Level Estimated
Thu 05:44:32 PM 19.2210 84.6181 287° West  Level Estimated
Thu 05:45:32 PM 19.2589 84.4889 287° West  Level Estimated
Thu 05:46:32 PM 19.2967 84.3596 287° West  Level Estimated
Thu 05:47:32 PM 19.3344 84.2303 287° West  Level Estimated
Thu 05:48:32 PM 19.3720 84.1009 287° West  Level Estimated
Thu 05:49:32 PM 19.4096 83.9714 287° West  Level Estimated
Thu 05:50:32 PM 19.4470 83.8419 287° West  Level Estimated
Thu 05:51:32 PM 19.4844 83.7123 287° West  Level Estimated
Thu 05:52:32 PM 19.5216 83.5827 287° West  Level Estimated
Thu 05:53:32 PM 19.5588 83.4530 287° West  Level Estimated
Thu 05:54:32 PM 19.5958 83.3233 287° West  Level Estimated
Thu 05:55:32 PM 19.6328 83.1934 287° West  Level Estimated
Thu 05:56:32 PM 19.6697 83.0636 287° West  Level Estimated
Thu 05:57:32 PM 19.7065 82.9336 287° West  Level Estimated
Thu 05:58:32 PM 19.7432 82.8036 287° West  Level Estimated
Thu 05:59:32 PM 19.7798 82.6736 287° West  Level Estimated
Thu 06:00:32 PM 19.8163 82.5435 287° West  Level Estimated
Thu 06:01:32 PM 19.8527 82.4133 287° West  Level Estimated
Thu 06:02:32 PM 19.8890 82.2831 286° West  Level Estimated
Thu 06:03:32 PM 19.9252 82.1528 286° West  Level Estimated
Thu 06:04:32 PM 19.9614 82.0225 286° West  Level Estimated
Thu 06:05:32 PM 19.9974 81.8920 286° West  Level Estimated
Thu 06:06:32 PM 20.0333 81.7616 286° West  Level Estimated
Thu 06:07:32 PM 20.0692 81.6310 286° West  Level Estimated
Thu 06:08:32 PM 20.1049 81.5005 286° West  Level Estimated
Thu 06:09:32 PM 20.1406 81.3698 286° West  Level Estimated
Thu 06:10:32 PM 20.1761 81.2391 286° West  Level Estimated
Thu 06:11:32 PM 20.2116 81.1083 286° West  Level Estimated
Thu 06:12:32 PM 20.2469 80.9775 286° West  Level Estimated
Thu 06:13:32 PM 20.2822 80.8466 286° West  Level Estimated
Thu 06:14:32 PM 20.3174 80.7157 286° West  Level Estimated
Thu 06:15:32 PM 20.3524 80.5847 286° West  Level Estimated
Thu 06:16:32 PM 20.3874 80.4536 286° West  Level Estimated
Thu 06:17:32 PM 20.4223 80.3225 286° West  Level Estimated
Thu 06:18:32 PM 20.4571 80.1913 286° West  Level Estimated
Thu 06:19:32 PM 20.4917 80.0601 286° West  Level Estimated
Thu 06:20:32 PM 20.5263 79.9287 286° West  Level Estimated
Thu 06:21:32 PM 20.5608 79.7974 286° West  Level Estimated
Thu 06:22:32 PM 20.5952 79.6660 286° West  Level Estimated
Thu 06:23:32 PM 20.6294 79.5345 286° West  Level Estimated
Thu 06:24:32 PM 20.6636 79.4029 285° West  Level Estimated
Thu 06:25:32 PM 20.6977 79.2713 285° West  Level Estimated
Thu 06:26:32 PM 20.7317 79.1397 285° West  Level Estimated
Thu 06:27:32 PM 20.7656 79.0080 285° West  Level Estimated
Thu 06:28:32 PM 20.7994 78.8762 285° West  Level Estimated
Thu 06:29:32 PM 20.8330 78.7444 285° West  Level Estimated
Thu 06:30:32 PM 20.8666 78.6125 285° West  Level Estimated
Thu 06:31:32 PM 20.9001 78.4805 285° West  Level Estimated
Thu 06:32:32 PM 20.9335 78.3485 285° West  Level Estimated
Thu 06:33:32 PM 20.9667 78.2164 285° West  Level Estimated
Thu 06:34:32 PM 20.9999 78.0843 285° West  Level Estimated
Thu 06:35:32 PM 21.0330 77.9521 285° West  Level Estimated
Thu 06:36:32 PM 21.0660 77.8199 285° West  Level Estimated
Thu 06:37:32 PM 21.0988 77.6876 285° West  Level Estimated
Thu 06:38:32 PM 21.1316 77.5552 285° West  Level Estimated
Thu 06:39:32 PM 21.1642 77.4228 285° West  Level Estimated
Thu 06:40:32 PM 21.1968 77.2903 285° West  Level Estimated
Thu 06:41:32 PM 21.2292 77.1578 285° West  Level Estimated
Thu 06:42:32 PM 21.2616 77.0252 285° West  Level Estimated
Thu 06:43:32 PM 21.2938 76.8925 285° West  Level Estimated
Thu 06:44:32 PM 21.3260 76.7598 285° West  Level Estimated
Thu 06:45:32 PM 21.3580 76.6271 285° West  Level Estimated
Thu 06:46:32 PM 21.3900 76.4942 284° West  Level Estimated
Thu 06:47:32 PM 21.4218 76.3614 284° West  Level Estimated
Thu 06:48:32 PM 21.4535 76.2284 284° West  Level Estimated
Thu 06:49:32 PM 21.4851 76.0954 284° West  Level Estimated
Thu 06:50:32 PM 21.5167 75.9623 284° West  Level Estimated
Thu 06:51:32 PM 21.5481 75.8292 284° West  Level Estimated
Thu 06:52:32 PM 21.5794 75.6961 284° West  Level Estimated
Thu 06:53:32 PM 21.6106 75.5628 284° West  Level Estimated
Thu 06:54:32 PM 21.6417 75.4295 284° West  Level Estimated
Thu 06:55:32 PM 21.6726 75.2962 284° West  Level Estimated
Thu 06:56:32 PM 21.7035 75.1628 284° West  Level Estimated
Thu 06:57:32 PM 21.7343 75.0293 284° West  Level Estimated
Thu 06:58:32 PM 21.7650 74.8958 284° West  Level Estimated
Thu 06:59:32 PM 21.7955 74.7623 284° West  Level Estimated
Thu 07:00:32 PM 21.8260 74.6286 284° West  Level Estimated
Thu 07:01:32 PM 21.8563 74.4949 284° West  Level Estimated
Thu 07:02:32 PM 21.8866 74.3612 284° West  Level Estimated
Thu 07:03:32 PM 21.9167 74.2274 284° West  Level Estimated
Thu 07:04:32 PM 21.9467 74.0935 284° West  Level Estimated
Thu 07:05:32 PM 21.9766 73.9596 284° West  Level Estimated
Thu 07:06:32 PM 22.0064 73.8256 283° West  Level Estimated
Thu 07:07:32 PM 22.0361 73.6916 283° West  Level Estimated
Thu 07:08:32 PM 22.0657 73.5575 283° West  Level Estimated
Thu 07:09:32 PM 22.0951 73.4234 283° West  Level Estimated
Thu 07:10:32 PM 22.1245 73.2892 283° West  Level Estimated
Thu 07:11:32 PM 22.1538 73.1550 283° West  Level Estimated
Thu 07:12:32 PM 22.1829 73.0207 283° West  Level Estimated
Thu 07:13:32 PM 22.2120 72.8863 283° West  Level Estimated
Thu 07:14:32 PM 22.2409 72.7519 283° West  Level Estimated
Thu 07:15:32 PM 22.2697 72.6174 283° West  Level Estimated
Thu 07:16:32 PM 22.2984 72.4829 283° West  Level Estimated
Thu 07:17:32 PM 22.3270 72.3483 283° West  Level Estimated
Thu 07:18:32 PM 22.3555 72.2137 283° West  Level Estimated
Thu 07:19:32 PM 22.3838 72.0790 283° West  Level Estimated
Thu 07:20:32 PM 22.4121 71.9442 283° West  Level Estimated
Thu 07:21:32 PM 22.4402 71.8094 283° West  Level Estimated
Thu 07:22:32 PM 22.4683 71.6745 283° West  Level Estimated
Thu 07:23:32 PM 22.4962 71.5396 283° West  Level Estimated
Thu 07:24:32 PM 22.5240 71.4046 283° West  Level Estimated
Thu 07:25:32 PM 22.5517 71.2696 282° West  Level Estimated
Thu 07:26:32 PM 22.5793 71.1346 282° West  Level Estimated
Thu 07:27:32 PM 22.6068 70.9994 282° West  Level Estimated
Thu 07:28:32 PM 22.6341 70.8642 282° West  Level Estimated
Thu 07:29:32 PM 22.6614 70.7290 282° West  Level Estimated
Thu 07:30:32 PM 22.6885 70.5937 282° West  Level Estimated
Thu 07:31:32 PM 22.7155 70.4584 282° West  Level Estimated
Thu 07:32:32 PM 22.7424 70.3230 282° West  Level Estimated
Thu 07:33:32 PM 22.7692 70.1875 282° West  Level Estimated
Thu 07:34:32 PM 22.7959 70.0520 282° West  Level Estimated
Thu 07:35:32 PM 22.8225 69.9165 282° West  Level Estimated
Thu 07:36:32 PM 22.8489 69.7809 282° West  Level Estimated
Thu 07:37:32 PM 22.8752 69.6452 282° West  Level Estimated
Thu 07:38:32 PM 22.9015 69.5095 282° West  Level Estimated
Thu 07:39:32 PM 22.9276 69.3737 282° West  Level Estimated
Thu 07:40:32 PM 22.9536 69.2379 282° West  Level Estimated
Thu 07:41:32 PM 22.9794 69.1020 282° West  Level Estimated
Thu 07:42:32 PM 23.0052 68.9661 282° West  Level Estimated
Thu 07:43:32 PM 23.0308 68.8301 282° West  Level Estimated
Thu 07:44:32 PM 23.0563 68.6941 282° West  Level Estimated
Thu 07:45:32 PM 23.0818 68.5580 281° West  Level Estimated
Thu 07:46:32 PM 23.1070 68.4219 281° West  Level Estimated
Thu 07:47:32 PM 23.1322 68.2857 281° West  Level Estimated
Thu 07:48:32 PM 23.1573 68.1495 281° West  Level Estimated
Thu 07:49:32 PM 23.1822 68.0132 281° West  Level Estimated
Thu 07:50:32 PM 23.2070 67.8769 281° West  Level Estimated
Thu 07:51:32 PM 23.2317 67.7405 281° West  Level Estimated
Thu 07:52:32 PM 23.2563 67.6041 281° West  Level Estimated
Thu 07:53:32 PM 23.2808 67.4676 281° West  Level Estimated
Thu 07:54:32 PM 23.3051 67.3310 281° West  Level Estimated
Thu 07:55:32 PM 23.3294 67.1945 281° West  Level Estimated
Thu 07:56:32 PM 23.3535 67.0578 281° West  Level Estimated
Thu 07:57:32 PM 23.3775 66.9211 281° West  Level Estimated
Thu 07:58:32 PM 23.4014 66.7844 281° West  Level Estimated
Thu 07:59:32 PM 23.4251 66.6476 281° West  Level Estimated
Thu 08:00:32 PM 23.4487 66.5108 281° West  Level Estimated
Thu 08:01:32 PM 23.4723 66.3739 281° West  Level Estimated
Thu 08:02:32 PM 23.4957 66.2370 281° West  Level Estimated
Thu 08:03:32 PM 23.5189 66.1000 280° West  Level Estimated
Thu 08:04:32 PM 23.5421 65.9630 280° West  Level Estimated
Thu 08:05:32 PM 23.5651 65.8259 280° West  Level Estimated
Thu 08:06:32 PM 23.5881 65.6888 280° West  Level Estimated
Thu 08:07:32 PM 23.6109 65.5516 280° West  Level Estimated
Thu 08:08:32 PM 23.6336 65.4144 280° West  Level Estimated
Thu 08:09:32 PM 23.6561 65.2772 280° West  Level Estimated
Thu 08:10:32 PM 23.6786 65.1398 280° West  Level Estimated
Thu 08:11:32 PM 23.7009 65.0025 280° West  Level Estimated
Thu 08:12:32 PM 23.7231 64.8651 280° West  Level Estimated
Thu 08:13:32 PM 23.7451 64.7276 280° West  Level Estimated
Thu 08:14:32 PM 23.7671 64.5901 280° West  Level Estimated
Thu 08:15:32 PM 23.7889 64.4526 280° West  Level Estimated
Thu 08:16:32 PM 23.8106 64.3150 280° West  Level Estimated
Thu 08:17:32 PM 23.8322 64.1773 280° West  Level Estimated
Thu 08:18:32 PM 23.8537 64.0396 280° West  Level Estimated
Thu 08:19:32 PM 23.8750 63.9019 280° West  Level Estimated
Thu 08:20:32 PM 23.8962 63.7641 280° West  Level Estimated
Thu 08:21:32 PM 23.9173 63.6263 279° West  Level Estimated
Thu 08:22:32 PM 23.9383 63.4885 279° West  Level Estimated
Thu 08:23:32 PM 23.9591 63.3506 279° West  Level Estimated
Thu 08:24:32 PM 23.9799 63.2126 279° West  Level Estimated
Thu 08:25:32 PM 24.0005 63.0746 279° West  Level Estimated
Thu 08:26:32 PM 24.0209 62.9366 279° West  Level Estimated
Thu 08:27:32 PM 24.0413 62.7985 279° West  Level Estimated
Thu 08:28:32 PM 24.0615 62.6604 279° West  Level Estimated
Thu 08:29:32 PM 24.0816 62.5222 279° West  Level Estimated
Thu 08:30:32 PM 24.1016 62.3840 279° West  Level Estimated
Thu 08:31:32 PM 24.1215 62.2457 279° West  Level Estimated
Thu 08:32:32 PM 24.1412 62.1074 279° West  Level Estimated
Thu 08:33:32 PM 24.1608 61.9691 279° West  Level Estimated
Thu 08:34:32 PM 24.1803 61.8307 279° West  Level Estimated
Thu 08:35:32 PM 24.1997 61.6922 279° West  Level Estimated
Thu 08:36:32 PM 24.2189 61.5538 279° West  Level Estimated
Thu 08:37:32 PM 24.2380 61.4153 279° West  Level Estimated
Thu 08:38:32 PM 24.2570 61.2767 279° West  Level Estimated
Thu 08:39:32 PM 24.2759 61.1381 278° West  Level Estimated
Thu 08:40:32 PM 24.2946 60.9995 278° West  Level Estimated
Thu 08:41:32 PM 24.3132 60.8608 278° West  Level Estimated
Thu 08:42:32 PM 24.3317 60.7221 278° West  Level Estimated
Thu 08:43:32 PM 24.3500 60.5833 278° West  Level Estimated
Thu 08:44:32 PM 24.3683 60.4445 278° West  Level Estimated
Thu 08:45:32 PM 24.3864 60.3057 278° West  Level Estimated
Thu 08:46:32 PM 24.4044 60.1668 278° West  Level Estimated
Thu 08:47:32 PM 24.4222 60.0279 278° West  Level Estimated
Thu 08:48:32 PM 24.4399 59.8889 278° West  Level Estimated
Thu 08:49:32 PM 24.4575 59.7499 278° West  Level Estimated
Thu 08:50:32 PM 24.4750 59.6109 278° West  Level Estimated
Thu 08:51:32 PM 24.4923 59.4718 278° West  Level Estimated
Thu 08:52:32 PM 24.5095 59.3327 278° West  Level Estimated
Thu 08:53:32 PM 24.5266 59.1936 278° West  Level Estimated
Thu 08:54:32 PM 24.5436 59.0544 278° West  Level Estimated
Thu 08:55:32 PM 24.5604 58.9152 278° West  Level Estimated
Thu 08:56:32 PM 24.5771 58.7759 277° West  Level Estimated
Thu 08:57:32 PM 24.5937 58.6366 277° West  Level Estimated
Thu 08:58:32 PM 24.6101 58.4973 277° West  Level Estimated
Thu 08:59:32 PM 24.6265 58.3579 277° West  Level Estimated
Thu 09:00:32 PM 24.6427 58.2185 277° West  Level Estimated
Thu 09:01:32 PM 24.6587 58.0791 277° West  Level Estimated
Thu 09:02:32 PM 24.6747 57.9396 277° West  Level Estimated
Thu 09:03:32 PM 24.6905 57.8001 277° West  Level Estimated
Thu 09:04:32 PM 24.7061 57.6605 277° West  Level Estimated
Thu 09:05:32 PM 24.7217 57.5210 277° West  Level Estimated
Thu 09:06:32 PM 24.7371 57.3813 277° West  Level Estimated
Thu 09:07:32 PM 24.7524 57.2417 277° West  Level Estimated
Thu 09:08:32 PM 24.7675 57.1020 277° West  Level Estimated
Thu 09:09:32 PM 24.7826 56.9623 277° West  Level Estimated
Thu 09:10:32 PM 24.7975 56.8225 277° West  Level Estimated
Thu 09:11:32 PM 24.8123 56.6827 277° West  Level Estimated
Thu 09:12:32 PM 24.8269 56.5429 277° West  Level Estimated
Thu 09:13:32 PM 24.8414 56.4031 276° West  Level Estimated
Thu 09:14:32 PM 24.8558 56.2632 276° West  Level Estimated
Thu 09:15:32 PM 24.8700 56.1232 276° West  Level Estimated
Thu 09:16:32 PM 24.8841 55.9833 276° West  Level Estimated
Thu 09:17:32 PM 24.8981 55.8433 276° West  Level Estimated
Thu 09:18:32 PM 24.9120 55.7033 276° West  Level Estimated
Thu 09:19:32 PM 24.9257 55.5633 276° West  Level Estimated
Thu 09:20:32 PM 24.9393 55.4232 276° West  Level Estimated
Thu 09:21:32 PM 24.9528 55.2831 276° West  Level Estimated
Thu 09:22:32 PM 24.9661 55.1429 276° West  Level Estimated
Thu 09:23:32 PM 24.9793 55.0028 276° West  Level Estimated
Thu 09:24:32 PM 24.9924 54.8625 276° West  Level Estimated
Thu 09:25:32 PM 25.0053 54.7223 276° West  Level Estimated
Thu 09:26:32 PM 25.0181 54.5821 276° West  Level Estimated
Thu 09:27:32 PM 25.0308 54.4418 276° West  Level Estimated
Thu 09:28:32 PM 25.0433 54.3014 276° West  Level Estimated
Thu 09:29:32 PM 25.0557 54.1611 276° West  Level Estimated
Thu 09:30:32 PM 25.0680 54.0207 275° West  Level Estimated
Thu 09:31:32 PM 25.0802 53.8803 275° West  Level Estimated
Thu 09:32:32 PM 25.0922 53.7399 275° West  Level Estimated
Thu 09:33:32 PM 25.1041 53.5994 275° West  Level Estimated
Thu 09:34:32 PM 25.1158 53.4590 275° West  Level Estimated
Thu 09:35:32 PM 25.1275 53.3185 275° West  Level Estimated
Thu 09:36:32 PM 25.1389 53.1779 275° West  Level Estimated
Thu 09:37:32 PM 25.1503 53.0373 275° West  Level Estimated
Thu 09:38:32 PM 25.1615 52.8968 275° West  Level Estimated
Thu 09:39:32 PM 25.1726 52.7561 275° West  Level Estimated
Thu 09:40:32 PM 25.1836 52.6155 275° West  Level Estimated
Thu 09:41:32 PM 25.1944 52.4748 275° West  Level Estimated
Thu 09:42:32 PM 25.2051 52.3341 275° West  Level Estimated
Thu 09:43:32 PM 25.2156 52.1934 275° West  Level Estimated
Thu 09:45:32 PM 25.2363 51.9119 275° West  Level Estimated
Thu 09:46:32 PM 25.2465 51.7711 275° West  Level Estimated
Thu 09:47:32 PM 25.2565 51.6303 274° West  Level Estimated
Thu 09:48:32 PM 25.2664 51.4895 94° East  Level Estimated
Thu 09:49:32 PM 25.2565 51.6303 274° West  Level Estimated
Thu 09:50:32 PM 25.2664 51.4895 94° East  Level Estimated
Thu 09:51:32 PM 25.2565 51.6303 274° West  Level Estimated
Thu 09:52:32 PM 25.2664 51.4895 94° East  Level Estimated
Thu 09:53:32 PM 25.2565 51.6303 274° West  Level Estimated
Thu 09:54:32 PM 25.2664 51.4895 94° East  Level Estimated
Thu 09:55:32 PM 25.2565 51.6303 274° West  Level Estimated
Thu 09:56:32 PM 25.2664 51.4895 94° East  Level Estimated
Thu 09:57:32 PM 25.2565 51.6303 274° West  Level Estimated
Thu 09:58:32 PM 25.2664 51.4895 94° East  Level Estimated
Thu 09:59:32 PM 25.2565 51.6303 274° West  Level Estimated
Thu 10:00:32 PM 25.2664 51.4895 94° East  Level Estimated
Thu 10:01:32 PM 25.2565 51.6303 94° East  Level Estimated

Login

Don't have an account? Register now (free) for customized features, flight alerts, and more!